createdAt,value
2023-04-26T00:02:34.578Z,101381.63
2023-04-26T00:05:27.233Z,101391.75
2023-04-26T00:08:16.605Z,101395.34
2023-04-26T00:11:06.117Z,101393.47
2023-04-26T00:13:55.448Z,101398.72
2023-04-26T00:16:44.854Z,101402.88
2023-04-26T00:19:34.141Z,101387.34
2023-04-26T00:22:25.189Z,101402.88
2023-04-26T00:25:14.826Z,101404.19
2023-04-26T00:28:04.152Z,101397.41
2023-04-26T00:30:53.600Z,101391.66
2023-04-26T00:33:42.901Z,101390.81
2023-04-26T00:36:32.827Z,101382.13
2023-04-26T00:39:23.572Z,101394.06
2023-04-26T00:42:13.043Z,101387.59
2023-04-26T00:45:02.443Z,101380.72
2023-04-26T00:47:53.210Z,101383.75
2023-04-26T00:50:42.744Z,101366.88
2023-04-26T00:53:32.482Z,101357.00
2023-04-26T00:56:24.316Z,101369.53
2023-04-26T00:59:14.114Z,101362.84
2023-04-26T01:02:04.693Z,101362.28
2023-04-26T01:04:53.942Z,101355.44
2023-04-26T01:07:43.237Z,101356.00
2023-04-26T01:10:33.813Z,101349.44
2023-04-26T01:13:24.616Z,101345.34
2023-04-26T01:16:15.184Z,101317.38
2023-04-26T01:19:11.021Z,101325.16
2023-04-26T01:22:01.307Z,101336.53
2023-04-26T01:24:54.360Z,101333.03
2023-04-26T01:27:43.849Z,101329.75
2023-04-26T01:30:34.094Z,101336.75
2023-04-26T01:33:25.678Z,101329.66
2023-04-26T01:36:14.881Z,101325.81
2023-04-26T01:39:04.944Z,101310.63
2023-04-26T01:41:55.692Z,101325.56
2023-04-26T01:44:46.014Z,101326.88
2023-04-26T01:47:35.367Z,101318.69
2023-04-26T01:50:24.779Z,101318.69
2023-04-26T01:53:14.161Z,101307.25
2023-04-26T01:56:05.822Z,101308.34
2023-04-26T01:58:57.524Z,101305.63
2023-04-26T02:01:47.130Z,101304.56
2023-04-26T02:04:36.945Z,101308.63
2023-04-26T02:07:27.009Z,101314.09
2023-04-26T02:10:18.791Z,101310.28
2023-04-26T02:13:09.906Z,101308.94
2023-04-26T02:16:00.858Z,101298.50
2023-04-26T02:18:51.057Z,101302.59
2023-04-26T02:21:55.852Z,101293.03
2023-04-26T02:24:45.823Z,101296.03
2023-04-26T02:27:35.193Z,101288.13
2023-04-26T02:30:24.394Z,101282.97
2023-04-26T02:33:15.355Z,101285.97
2023-04-26T02:36:06.386Z,101281.75
2023-04-26T02:38:55.972Z,101289.66
2023-04-26T02:41:45.580Z,101262.28
2023-04-26T02:44:35.053Z,101282.56
2023-04-26T02:47:25.133Z,101281.47
2023-04-26T02:50:16.223Z,101267.59
2023-04-26T02:53:05.561Z,101266.72
2023-04-26T02:55:55.996Z,101262.34
2023-04-26T02:58:45.243Z,101253.31
2023-04-26T03:01:34.574Z,101251.50
2023-04-26T03:04:24.031Z,101251.19
2023-04-26T03:07:14.699Z,101258.28
2023-04-26T03:10:05.008Z,101249.34
2023-04-26T03:12:54.650Z,101253.63
2023-04-26T03:15:47.245Z,101254.53
2023-04-26T03:18:37.630Z,101253.13
2023-04-26T03:21:28.589Z,101254.47
2023-04-26T03:24:20.143Z,101254.16
2023-04-26T03:27:10.040Z,101248.69
2023-04-26T03:29:59.760Z,101250.63
2023-04-26T03:32:50.608Z,101247.94
2023-04-26T03:35:40.017Z,101254.53
2023-04-26T03:38:29.289Z,101241.47
2023-04-26T03:41:20.432Z,101250.19
2023-04-26T03:44:09.847Z,101231.63
2023-04-26T03:46:59.389Z,101239.44
2023-04-26T03:49:49.065Z,101238.63
2023-04-26T03:52:38.596Z,101225.34
2023-04-26T03:55:27.956Z,101234.28
2023-04-26T03:58:19.423Z,101232.66
2023-04-26T04:01:08.858Z,101227.19
2023-04-26T04:03:58.298Z,101222.84
2023-04-26T04:06:48.135Z,101202.53
2023-04-26T04:09:37.707Z,101220.41
2023-04-26T04:12:27.084Z,101209.34
2023-04-26T04:15:18.963Z,101211.78
2023-04-26T04:18:10.437Z,101201.72
2023-04-26T04:21:00.398Z,101200.91
2023-04-26T04:23:50.428Z,101207.69
2023-04-26T04:26:40.372Z,101200.09
2023-04-26T04:29:29.788Z,101200.91
2023-04-26T04:32:21.159Z,101201.56
2023-04-26T04:35:11.314Z,101199.34
2023-04-26T04:38:00.592Z,101202.31
2023-04-26T04:40:51.304Z,101200.75
2023-04-26T04:43:41.840Z,101178.25
2023-04-26T04:46:36.464Z,101207.84
2023-04-26T04:49:27.420Z,101206.53
2023-04-26T04:52:18.786Z,101201.25
2023-04-26T04:55:09.170Z,101203.19
2023-04-26T04:58:00.569Z,101202.69
2023-04-26T05:00:54.427Z,101195.66
2023-04-26T05:03:48.944Z,101204.66
2023-04-26T05:06:39.774Z,101201.94
2023-04-26T05:09:29.402Z,101201.13
2023-04-26T05:12:18.751Z,101212.03
2023-04-26T05:15:10.551Z,101193.22
2023-04-26T05:18:01.306Z,101202.97
2023-04-26T05:20:51.756Z,101176.97
2023-04-26T05:23:43.618Z,101180.69
2023-04-26T05:26:33.512Z,101202.31
2023-04-26T05:29:42.655Z,101203.94
2023-04-26T05:32:50.546Z,101208.28
2023-04-26T05:36:18.859Z,101210.97
2023-04-26T05:39:10.891Z,101213.09
2023-04-26T05:42:03.776Z,101190.06
2023-04-26T05:44:59.912Z,101212.22
2023-04-26T05:47:51.552Z,101220.31
2023-04-26T05:50:41.026Z,101208.88
2023-04-26T05:53:31.507Z,101198.47
2023-04-26T05:56:24.450Z,101210.75
2023-04-26T05:59:14.042Z,101224.25
2023-04-26T06:02:04.913Z,101206.59
2023-04-26T06:04:54.707Z,101195.97
2023-04-26T06:07:44.984Z,101208.34
2023-04-26T06:10:34.514Z,101207.78
2023-04-26T06:13:25.462Z,101204.72
2023-04-26T06:16:14.888Z,101194.09
2023-04-26T06:19:04.774Z,101201.91
2023-04-26T06:21:55.632Z,101205.44
2023-04-26T06:24:45.173Z,101211.22
2023-04-26T06:27:34.546Z,101206.84
2023-04-26T06:30:25.390Z,101213.25
2023-04-26T06:33:15.487Z,101218.47
2023-04-26T06:36:05.268Z,101220.41
2023-04-26T06:38:54.513Z,101224.25
2023-04-26T06:41:43.892Z,101219.88
2023-04-26T06:44:34.859Z,101220.91
2023-04-26T06:47:28.874Z,101218.22
2023-04-26T06:50:18.448Z,101221.41
2023-04-26T06:53:07.803Z,101238.56
2023-04-26T06:55:58.349Z,101224.84
2023-04-26T06:59:01.651Z,101217.47
2023-04-26T07:01:51.019Z,101221.53
2023-04-26T07:04:41.934Z,101229.19
2023-04-26T07:07:31.625Z,101234.97
2023-04-26T07:10:21.306Z,101228.38
2023-04-26T07:13:11.086Z,101236.19
2023-04-26T07:16:00.687Z,101237.06
2023-04-26T07:18:50.164Z,101223.75
2023-04-26T07:21:40.878Z,101228.84
2023-04-26T07:24:30.233Z,101229.75
2023-04-26T07:27:19.724Z,101231.75
2023-04-26T07:30:11.364Z,101229.94
2023-04-26T07:33:01.051Z,101224.34
2023-04-26T07:35:56.923Z,101211.69
2023-04-26T07:38:47.737Z,101222.16
2023-04-26T07:41:36.970Z,101225.59
2023-04-26T07:44:26.275Z,101234.88
2023-04-26T07:47:15.894Z,101229.00
2023-04-26T07:50:06.000Z,101223.59
2023-04-26T07:52:55.220Z,101229.53
2023-04-26T07:55:46.331Z,101210.78
2023-04-26T07:58:36.285Z,101208.69
2023-04-26T08:01:26.237Z,101149.19
2023-04-26T08:04:15.778Z,101216.97
2023-04-26T08:07:05.240Z,101219.94
2023-04-26T08:09:54.633Z,101209.75
2023-04-26T08:12:45.360Z,101206.69
2023-04-26T08:15:34.862Z,101218.31
2023-04-26T08:18:24.134Z,101219.66
2023-04-26T08:21:13.528Z,101227.91
2023-04-26T08:24:02.779Z,101222.72
2023-04-26T08:26:52.114Z,101220.78
2023-04-26T08:29:43.065Z,101227.59
2023-04-26T08:32:34.191Z,101220.97
2023-04-26T08:35:23.434Z,101223.72
2023-04-26T08:38:12.739Z,101222.56
2023-04-26T08:41:03.100Z,101226.59
2023-04-26T08:43:52.935Z,101229.22
2023-04-26T08:46:57.206Z,101226.28
2023-04-26T08:49:50.365Z,101214.16
2023-04-26T08:52:41.094Z,101221.09
2023-04-26T08:55:31.104Z,101227.91
2023-04-26T08:58:21.642Z,101233.88
2023-04-26T09:01:11.609Z,101222.06
2023-04-26T09:04:03.385Z,101231.56
2023-04-26T09:06:54.686Z,101228.13
2023-04-26T09:09:47.252Z,101221.28
2023-04-26T09:12:36.827Z,101220.78
2023-04-26T09:15:28.318Z,101215.41
2023-04-26T09:18:22.989Z,101221.38
2023-04-26T09:21:17.986Z,101229.84
2023-04-26T09:24:08.021Z,101220.09
2023-04-26T09:27:04.234Z,101214.03
2023-04-26T09:30:04.593Z,101212.44
2023-04-26T09:32:57.652Z,101219.53
2023-04-26T09:35:46.945Z,101223.03
2023-04-26T09:38:44.330Z,101223.59
2023-04-26T09:41:46.476Z,101229.19
2023-04-26T09:44:36.693Z,101224.56
2023-04-26T09:47:25.938Z,101226.78
2023-04-26T09:50:15.301Z,101228.41
2023-04-26T09:53:04.615Z,101227.25
2023-04-26T09:55:55.693Z,101216.50
2023-04-26T09:58:59.387Z,101220.22
2023-04-26T10:01:48.643Z,101229.09
2023-04-26T10:04:38.664Z,101221.72
2023-04-26T10:07:28.161Z,101231.19
2023-04-26T10:10:19.060Z,101230.28
2023-04-26T10:13:09.881Z,101239.38
2023-04-26T10:15:59.367Z,101218.28
2023-04-26T10:18:49.676Z,101220.94
2023-04-26T10:21:41.594Z,101217.84
2023-04-26T10:24:31.418Z,101212.50
2023-04-26T10:27:50.223Z,101203.84
2023-04-26T10:30:59.536Z,101200.25
2023-04-26T10:34:21.550Z,101196.88
2023-04-26T10:37:13.109Z,101206.16
2023-04-26T10:40:27.479Z,101196.22
2023-04-26T10:43:32.931Z,101207.09
2023-04-26T10:46:38.783Z,101212.84
2023-04-26T10:49:28.100Z,101213.00
2023-04-26T10:52:20.334Z,101205.81
2023-04-26T10:55:10.504Z,101202.06
2023-04-26T10:57:59.942Z,101203.31
2023-04-26T11:01:06.415Z,101194.59
2023-04-26T11:04:12.436Z,101192.50
2023-04-26T11:07:05.257Z,101195.00
2023-04-26T11:09:54.805Z,101198.97
2023-04-26T11:12:44.252Z,101194.41
2023-04-26T11:15:34.314Z,101190.66
2023-04-26T11:18:23.860Z,101196.66
2023-04-26T11:21:15.491Z,101185.19
2023-04-26T11:24:05.045Z,101196.66
2023-04-26T11:26:54.514Z,101192.09
2023-04-26T11:29:43.959Z,101200.44
2023-04-26T11:32:34.503Z,101204.16
2023-04-26T11:35:24.904Z,101199.22
2023-04-26T11:38:16.210Z,101198.06
2023-04-26T11:41:06.287Z,101190.06
2023-04-26T11:43:55.664Z,101201.44
2023-04-26T11:46:45.459Z,101206.09
2023-04-26T11:49:37.010Z,101192.69
2023-04-26T11:52:26.582Z,101207.19
2023-04-26T11:55:17.265Z,101221.16
2023-04-26T11:58:15.531Z,101202.44
2023-04-26T12:01:04.780Z,101210.78
2023-04-26T12:03:56.936Z,101216.84
2023-04-26T12:09:41.478Z,101225.59
2023-04-26T12:12:32.308Z,101221.97
2023-04-26T12:15:25.971Z,101208.16
2023-04-26T12:18:15.704Z,101222.72
2023-04-26T12:21:05.524Z,101213.72
2023-04-26T12:23:54.922Z,101231.28
2023-04-26T12:26:45.823Z,101227.09
2023-04-26T12:29:36.879Z,101217.81
2023-04-26T12:32:27.110Z,101214.84
2023-04-26T12:35:16.913Z,101225.13
2023-04-26T12:38:06.255Z,101225.53
2023-04-26T12:40:55.957Z,101234.47
2023-04-26T12:43:45.263Z,101218.88
2023-04-26T12:46:36.480Z,101217.88
2023-04-26T12:49:26.210Z,101214.94
2023-04-26T12:52:15.561Z,101217.66
2023-04-26T12:55:05.272Z,101217.44
2023-04-26T12:57:54.554Z,101211.34
2023-04-26T13:00:44.697Z,101217.66
2023-04-26T13:03:36.378Z,101219.38
2023-04-26T13:06:27.892Z,101211.69
2023-04-26T13:09:17.691Z,101201.34
2023-04-26T13:12:07.536Z,101204.13
2023-04-26T13:14:56.982Z,101212.97
2023-04-26T13:17:47.129Z,101215.16
2023-04-26T13:20:38.316Z,101198.25
2023-04-26T13:23:27.812Z,101200.06
2023-04-26T13:26:18.465Z,101203.84
2023-04-26T13:29:08.104Z,101200.81
2023-04-26T13:31:58.831Z,101206.69
2023-04-26T13:34:48.146Z,101204.44
2023-04-26T13:37:39.039Z,101202.31
2023-04-26T13:40:28.425Z,101205.44
2023-04-26T13:43:17.692Z,101203.84
2023-04-26T13:46:06.968Z,101202.38
2023-04-26T13:48:56.908Z,101214.22
2023-04-26T13:51:46.237Z,101206.25
2023-04-26T13:54:37.248Z,101197.06
2023-04-26T13:57:26.549Z,101198.34
2023-04-26T14:00:18.028Z,101215.94
2023-04-26T14:03:09.702Z,101208.34
2023-04-26T14:05:58.970Z,101210.50
2023-04-26T14:08:48.177Z,101205.41
2023-04-26T14:11:38.891Z,101207.28
2023-04-26T14:14:28.266Z,101203.72
2023-04-26T14:17:17.859Z,101211.22
2023-04-26T14:20:10.553Z,101210.41
2023-04-26T14:23:00.022Z,101215.91
2023-04-26T14:25:53.631Z,101213.53
2023-04-26T14:28:45.082Z,101213.09
2023-04-26T14:31:34.470Z,101211.41
2023-04-26T14:34:23.946Z,101210.13
2023-04-26T14:37:13.214Z,101206.06
2023-04-26T14:40:02.456Z,101198.22
2023-04-26T14:42:52.213Z,101206.38
2023-04-26T14:45:45.862Z,101200.78
2023-04-26T14:48:35.194Z,101201.94
2023-04-26T14:51:24.491Z,101209.03
2023-04-26T14:54:13.958Z,101200.72
2023-04-26T14:57:03.200Z,101216.03
2023-04-26T14:59:52.587Z,101196.66
2023-04-26T15:02:43.397Z,101211.28
2023-04-26T15:05:33.771Z,101215.50
2023-04-26T15:08:23.001Z,101210.03
2023-04-26T15:11:12.276Z,101213.63
2023-04-26T15:14:01.604Z,101208.16
2023-04-26T15:16:50.872Z,101210.06
2023-04-26T15:19:41.744Z,101207.78
2023-04-26T15:22:31.447Z,101206.00
2023-04-26T15:25:21.271Z,101207.66
2023-04-26T15:28:10.583Z,101206.84
2023-04-26T15:31:04.184Z,101201.31
2023-04-26T15:33:56.531Z,101202.06
2023-04-26T15:36:47.583Z,101203.72
2023-04-26T15:39:37.002Z,101200.50
2023-04-26T15:42:26.425Z,101195.91
2023-04-26T15:45:15.819Z,101191.09
2023-04-26T15:48:05.917Z,101174.59
2023-04-26T15:50:56.933Z,101186.06
2023-04-26T15:53:47.956Z,101184.34
2023-04-26T15:56:37.550Z,101189.44
2023-04-26T15:59:26.892Z,101181.09
2023-04-26T16:02:16.269Z,101174.25
2023-04-26T16:05:08.373Z,101171.88
2023-04-26T16:07:57.833Z,101170.47
2023-04-26T16:10:48.486Z,101187.88
2023-04-26T16:13:37.925Z,101174.53
2023-04-26T16:16:27.250Z,101158.28
2023-04-26T16:19:17.512Z,101168.47
2023-04-26T16:22:06.773Z,101170.03
2023-04-26T16:24:56.129Z,101167.47
2023-04-26T16:27:46.866Z,101179.81
2023-04-26T16:30:36.963Z,101173.13
2023-04-26T16:33:26.832Z,101169.00
2023-04-26T16:36:16.504Z,101170.22
2023-04-26T16:39:06.084Z,101152.81
2023-04-26T16:41:55.990Z,101163.63
2023-04-26T16:44:46.722Z,101170.97
2023-04-26T16:47:36.513Z,101161.97
2023-04-26T16:50:26.028Z,101169.44
2023-04-26T16:53:16.029Z,101165.34
2023-04-26T16:56:06.440Z,101164.16
2023-04-26T16:58:55.925Z,101170.91
2023-04-26T17:01:47.378Z,101175.81
2023-04-26T17:04:37.112Z,101172.50
2023-04-26T17:07:27.232Z,101167.13
2023-04-26T17:10:16.503Z,101178.00
2023-04-26T17:13:09.013Z,101172.53
2023-04-26T17:15:58.484Z,101179.38
2023-04-26T17:18:49.251Z,101173.34
2023-04-26T17:21:38.566Z,101176.44
2023-04-26T17:24:27.743Z,101172.19
2023-04-26T17:27:18.119Z,101179.25
2023-04-26T17:30:09.272Z,101171.06
2023-04-26T17:32:58.509Z,101161.06
2023-04-26T17:35:49.364Z,101168.38
2023-04-26T17:38:38.663Z,101168.94
2023-04-26T17:41:28.043Z,101165.38
2023-04-26T17:44:17.814Z,101179.28
2023-04-26T17:47:07.249Z,101169.59
2023-04-26T17:49:59.018Z,101160.88
2023-04-26T17:52:49.712Z,101149.25
2023-04-26T17:55:39.036Z,101179.69
2023-04-26T17:58:28.275Z,101174.31
2023-04-26T18:01:17.691Z,101173.31
2023-04-26T18:04:07.496Z,101179.28
2023-04-26T18:06:57.205Z,101161.00
2023-04-26T18:09:47.894Z,101158.38
2023-04-26T18:12:38.284Z,101161.78
2023-04-26T18:15:27.883Z,101150.00
2023-04-26T18:18:17.304Z,101152.06
2023-04-26T18:21:06.953Z,101149.78
2023-04-26T18:23:56.400Z,101147.00
2023-04-26T18:26:47.084Z,101132.72
2023-04-26T18:29:36.401Z,101144.03
2023-04-26T18:32:25.905Z,101136.28
2023-04-26T18:35:15.723Z,101148.44
2023-04-26T18:38:05.309Z,101146.16
2023-04-26T18:40:54.617Z,101154.56
2023-04-26T18:43:45.445Z,101156.16
2023-04-26T18:46:34.799Z,101152.59
2023-04-26T18:49:24.315Z,101155.34
2023-04-26T18:52:13.868Z,101132.84
2023-04-26T18:55:03.284Z,101140.91
2023-04-26T18:57:52.662Z,101152.16
2023-04-26T19:00:43.413Z,101157.28
2023-04-26T19:03:32.831Z,101156.63
2023-04-26T19:06:22.370Z,101156.28
2023-04-26T19:09:13.416Z,101161.13
2023-04-26T19:12:02.843Z,101159.03
2023-04-26T19:14:52.496Z,101161.59
2023-04-26T19:17:43.185Z,101166.44
2023-04-26T19:20:32.542Z,101159.97
2023-04-26T19:23:22.095Z,101162.81
2023-04-26T19:26:13.416Z,101172.81
2023-04-26T19:29:04.134Z,101162.22
2023-04-26T19:31:55.544Z,101174.34
2023-04-26T19:34:46.388Z,101160.00
2023-04-26T19:37:35.710Z,101171.19
2023-04-26T19:40:25.139Z,101169.16
2023-04-26T19:43:14.480Z,101171.91
2023-04-26T19:46:11.606Z,101176.47
2023-04-26T19:49:00.998Z,101179.63
2023-04-26T19:51:51.769Z,101179.03
2023-04-26T19:54:41.049Z,101179.81
2023-04-26T19:57:30.277Z,101185.09
2023-04-26T20:00:20.093Z,101183.91
2023-04-26T20:03:09.436Z,101180.03
2023-04-26T20:05:58.760Z,101177.69
2023-04-26T20:08:49.379Z,101165.91
2023-04-26T20:11:38.785Z,101168.97
2023-04-26T20:14:30.414Z,101171.91
2023-04-26T20:17:19.705Z,101176.28
2023-04-26T20:20:10.583Z,101168.25
2023-04-26T20:23:00.012Z,101167.22
2023-04-26T20:25:51.703Z,101169.59
2023-04-26T20:28:40.949Z,101181.38
2023-04-26T20:31:30.294Z,101169.19
2023-04-26T20:34:19.739Z,101158.31
2023-04-26T20:37:09.149Z,101174.28
2023-04-26T20:39:58.655Z,101189.19
2023-04-26T20:42:49.420Z,101189.63
2023-04-26T20:45:38.780Z,101195.84
2023-04-26T20:48:28.046Z,101192.97
2023-04-26T20:51:17.471Z,101190.75
2023-04-26T20:54:06.806Z,101185.91
2023-04-26T20:56:56.191Z,101191.94
2023-04-26T20:59:46.897Z,101190.09
2023-04-26T21:02:36.269Z,101189.94
2023-04-26T21:05:25.812Z,101195.44
2023-04-26T21:08:15.205Z,101183.88
2023-04-26T21:11:04.489Z,101198.91
2023-04-26T21:13:54.263Z,101197.47
2023-04-26T21:16:45.166Z,101194.41
2023-04-26T21:19:34.398Z,101192.00
2023-04-26T21:22:23.694Z,101197.47
2023-04-26T21:25:17.148Z,101186.81
2023-04-26T21:28:06.524Z,101187.94
2023-04-26T21:31:05.005Z,101194.63
2023-04-26T21:33:55.895Z,101193.16
2023-04-26T21:36:45.220Z,101193.97
2023-04-26T21:39:34.412Z,101200.09
2023-04-26T21:42:23.778Z,101200.09
2023-04-26T21:45:14.116Z,101189.25
2023-04-26T21:48:04.610Z,101190.09
2023-04-26T21:50:55.284Z,101191.72
2023-04-26T21:53:45.089Z,101182.19
2023-04-26T21:56:34.530Z,101182.38
2023-04-26T21:59:24.028Z,101186.56
2023-04-26T22:02:13.385Z,101183.56
2023-04-26T22:05:02.799Z,101176.34
2023-04-26T22:07:53.508Z,101176.16
2023-04-26T22:10:42.800Z,101173.09
2023-04-26T22:13:33.210Z,101168.44
2023-04-26T22:16:22.543Z,101161.44
2023-04-26T22:19:12.198Z,101156.44
2023-04-26T22:22:01.790Z,101156.44
2023-04-26T22:24:52.525Z,101150.84
2023-04-26T22:27:41.928Z,101145.84
2023-04-26T22:30:31.382Z,101148.47
2023-04-26T22:33:20.857Z,101149.28
2023-04-26T22:36:11.166Z,101148.16
2023-04-26T22:39:00.504Z,101148.47
2023-04-26T22:41:51.226Z,101125.94
2023-04-26T22:44:40.543Z,101135.50
2023-04-26T22:47:30.431Z,101139.38
2023-04-26T22:50:19.876Z,101125.09
2023-04-26T22:53:09.225Z,101123.47
2023-04-26T22:55:58.727Z,101128.66
2023-04-26T22:58:49.848Z,101122.66
2023-04-26T23:01:39.466Z,101111.97
2023-04-26T23:04:28.808Z,101126.16
2023-04-26T23:07:18.101Z,101127.56
2023-04-26T23:10:08.790Z,101125.13
2023-04-26T23:12:58.438Z,101127.41
2023-04-26T23:15:49.146Z,101118.53
2023-04-26T23:18:38.379Z,101129.53
2023-04-26T23:21:28.256Z,101123.44
2023-04-26T23:24:17.554Z,101115.34
2023-04-26T23:27:06.851Z,101121.16
2023-04-26T23:29:56.905Z,101112.28
2023-04-26T23:32:47.607Z,101115.03
2023-04-26T23:35:42.494Z,101117.50
2023-04-26T23:38:31.760Z,101126.06
2023-04-26T23:41:21.115Z,101121.81
2023-04-26T23:44:10.363Z,101133.59
2023-04-26T23:46:59.577Z,101127.94
2023-04-26T23:49:50.589Z,101132.78
2023-04-26T23:52:39.766Z,101129.88
2023-04-26T23:55:29.334Z,101131.78
2023-04-26T23:58:18.570Z,101135.34
